Terminal Aerodrome Forecast
Issued by NWS

Home | Current Version | Previous Version | Text Only | Print | Product List | Glossary On
Versions: 1 2 3 4 5 6 7 8 9 10 11 12 13
000
FTUS44 KLZK 042338
TAFPBF
TAF
KPBF 042338Z 0500/0524 10005KT P6SM FEW070 SCT120 BKN250
     FM050200 00000KT P6SM FEW120 SCT250
     FM051500 25005KT P6SM SCT050 SCT100=

USA.gov is the U.S. government's official web portal to all federal, state and local government web resources and services.